Wolverine, Michigan
Current Conditions -  °F | °C
As of 9:53 AM on Wednesday 26 Nov 2014 (Local Time) from KGLR Reporting Station
Haze Haze  
Wind Chill: 22°   Ceiling: 2100
Heat Index: 22°   Visibility: 6mi
Dew Point: 18°   Wind: 3mph
Humidity: 85%   Direction: 160°SSE
Pressure: 30.15"   Gusts: NA
Location:  45.27°N, 84.6°W
Report Text: KGLR 261453Z AUTO 16003KT 6SM BR OVC021 M06/M08 A3015 RMK AO2 SNB1354E44 SLP230 P0000 60000 T10561078 51007
Loading
Personal Weather Stations






























Interactive Weather Map New forecast layout! Learn more

10-Day Weather Forecast

Advertisements
Track Severe Weather on mobile